sensor_id;sensor_type;location;lat;lon;timestamp;temperature;humidity
19496;DHT22;9888;48.606;9.630;2022-12-29T00:02:02;6.00;99.90
19496;DHT22;9888;48.606;9.630;2022-12-29T00:04:29;6.10;99.90
19496;DHT22;9888;48.606;9.630;2022-12-29T00:06:56;6.10;99.90
19496;DHT22;9888;48.606;9.630;2022-12-29T00:09:25;6.10;99.90
19496;DHT22;9888;48.606;9.630;2022-12-29T00:11:53;6.00;99.90
19496;DHT22;9888;48.606;9.630;2022-12-29T00:14:20;6.00;99.90
19496;DHT22;9888;48.606;9.630;2022-12-29T00:17:05;6.10;99.90
19496;DHT22;9888;48.606;9.630;2022-12-29T00:19:32;6.20;99.90
19496;DHT22;9888;48.606;9.630;2022-12-29T00:22:18;6.20;99.90
19496;DHT22;9888;48.606;9.630;2022-12-29T00:25:07;6.10;99.90
19496;DHT22;9888;48.606;9.630;2022-12-29T00:27:53;6.10;99.90
19496;DHT22;9888;48.606;9.630;2022-12-29T00:30:38;6.20;99.90
19496;DHT22;9888;48.606;9.630;2022-12-29T00:33:29;6.20;99.90
19496;DHT22;9888;48.606;9.630;2022-12-29T00:36:25;6.30;99.90
19496;DHT22;9888;48.606;9.630;2022-12-29T00:39:15;6.40;99.90
19496;DHT22;9888;48.606;9.630;2022-12-29T00:42:08;6.30;99.90
19496;DHT22;9888;48.606;9.630;2022-12-29T00:44:54;6.30;99.90
19496;DHT22;9888;48.606;9.630;2022-12-29T00:47:25;6.40;99.90
19496;DHT22;9888;48.606;9.630;2022-12-29T00:49:52;6.80;99.90
19496;DHT22;9888;48.606;9.630;2022-12-29T00:52:19;7.10;99.90
19496;DHT22;9888;48.606;9.630;2022-12-29T00:54:46;7.20;99.90
19496;DHT22;9888;48.606;9.630;2022-12-29T00:57:14;7.30;99.90
19496;DHT22;9888;48.606;9.630;2022-12-29T00:59:41;7.40;99.90
19496;DHT22;9888;48.606;9.630;2022-12-29T01:02:09;7.30;99.90
19496;DHT22;9888;48.606;9.630;2022-12-29T01:04:36;7.10;99.90
19496;DHT22;9888;48.606;9.630;2022-12-29T01:07:04;7.00;99.90
19496;DHT22;9888;48.606;9.630;2022-12-29T01:09:32;7.00;99.90
19496;DHT22;9888;48.606;9.630;2022-12-29T01:12:16;7.00;99.90
19496;DHT22;9888;48.606;9.630;2022-12-29T01:15:03;7.40;99.90
19496;DHT22;9888;48.606;9.630;2022-12-29T01:17:30;7.60;99.90
19496;DHT22;9888;48.606;9.630;2022-12-29T01:19:57;7.50;99.90
19496;DHT22;9888;48.606;9.630;2022-12-29T01:22:24;7.40;99.90
19496;DHT22;9888;48.606;9.630;2022-12-29T01:24:51;7.20;99.90
19496;DHT22;9888;48.606;9.630;2022-12-29T01:27:18;7.20;99.90
19496;DHT22;9888;48.606;9.630;2022-12-29T01:29:45;7.10;99.90
19496;DHT22;9888;48.606;9.630;2022-12-29T01:32:12;7.20;99.90
19496;DHT22;9888;48.606;9.630;2022-12-29T01:34:39;7.30;99.90
19496;DHT22;9888;48.606;9.630;2022-12-29T01:37:06;7.40;99.90
19496;DHT22;9888;48.606;9.630;2022-12-29T01:39:33;7.40;99.90
19496;DHT22;9888;48.606;9.630;2022-12-29T01:42:00;7.30;99.90
19496;DHT22;9888;48.606;9.630;2022-12-29T01:45:11;7.20;99.90
19496;DHT22;9888;48.606;9.630;2022-12-29T01:47:42;7.40;99.90
19496;DHT22;9888;48.606;9.630;2022-12-29T01:50:24;7.60;99.90
19496;DHT22;9888;48.606;9.630;2022-12-29T01:53:15;7.60;99.90
19496;DHT22;9888;48.606;9.630;2022-12-29T01:55:55;7.50;99.90
19496;DHT22;9888;48.606;9.630;2022-12-29T01:58:26;7.50;99.90
19496;DHT22;9888;48.606;9.630;2022-12-29T02:00:56;7.60;99.90
19496;DHT22;9888;48.606;9.630;2022-12-29T02:03:25;8.00;99.90
19496;DHT22;9888;48.606;9.630;2022-12-29T02:06:13;8.60;99.90
19496;DHT22;9888;48.606;9.630;2022-12-29T02:08:42;8.80;99.90
19496;DHT22;9888;48.606;9.630;2022-12-29T02:11:15;8.80;99.90
19496;DHT22;9888;48.606;9.630;2022-12-29T02:13:42;8.90;99.90
19496;DHT22;9888;48.606;9.630;2022-12-29T02:22:24;8.90;99.90
19496;DHT22;9888;48.606;9.630;2022-12-29T02:31:17;8.60;99.90
19496;DHT22;9888;48.606;9.630;2022-12-29T02:40:06;8.60;99.90
19496;DHT22;9888;48.606;9.630;2022-12-29T02:45:51;8.40;99.90
19496;DHT22;9888;48.606;9.630;2022-12-29T02:48:34;8.40;99.90
19496;DHT22;9888;48.606;9.630;2022-12-29T02:51:23;8.10;99.90
19496;DHT22;9888;48.606;9.630;2022-12-29T02:53:53;8.00;99.90
19496;DHT22;9888;48.606;9.630;2022-12-29T02:56:41;8.00;99.90
19496;DHT22;9888;48.606;9.630;2022-12-29T02:59:09;7.80;99.90
19496;DHT22;9888;48.606;9.630;2022-12-29T03:05:47;7.50;99.90
19496;DHT22;9888;48.606;9.630;2022-12-29T03:11:02;7.30;99.90
19496;DHT22;9888;48.606;9.630;2022-12-29T03:13:39;7.30;99.90
19496;DHT22;9888;48.606;9.630;2022-12-29T03:16:58;7.20;99.90
19496;DHT22;9888;48.606;9.630;2022-12-29T03:19:36;7.30;99.90
19496;DHT22;9888;48.606;9.630;2022-12-29T03:22:08;7.20;99.90
19496;DHT22;9888;48.606;9.630;2022-12-29T03:25:58;7.20;99.90
19496;DHT22;9888;48.606;9.630;2022-12-29T03:28:01;7.20;99.90
19496;DHT22;9888;48.606;9.630;2022-12-29T03:30:31;7.20;99.90
19496;DHT22;9888;48.606;9.630;2022-12-29T03:33:04;7.10;99.90
19496;DHT22;9888;48.606;9.630;2022-12-29T03:35:34;7.00;99.90
19496;DHT22;9888;48.606;9.630;2022-12-29T03:40:52;7.20;99.90
19496;DHT22;9888;48.606;9.630;2022-12-29T03:43:20;7.50;99.90
19496;DHT22;9888;48.606;9.630;2022-12-29T03:45:47;7.60;99.90
19496;DHT22;9888;48.606;9.630;2022-12-29T03:48:14;7.60;99.90
19496;DHT22;9888;48.606;9.630;2022-12-29T03:50:42;7.70;99.90
19496;DHT22;9888;48.606;9.630;2022-12-29T03:53:09;7.50;99.90
19496;DHT22;9888;48.606;9.630;2022-12-29T03:55:36;7.30;99.90
19496;DHT22;9888;48.606;9.630;2022-12-29T03:58:03;7.20;99.90
19496;DHT22;9888;48.606;9.630;2022-12-29T04:00:30;7.20;99.90
19496;DHT22;9888;48.606;9.630;2022-12-29T04:02:57;7.10;99.90
19496;DHT22;9888;48.606;9.630;2022-12-29T04:05:24;7.00;99.90
19496;DHT22;9888;48.606;9.630;2022-12-29T04:07:51;6.80;99.90
19496;DHT22;9888;48.606;9.630;2022-12-29T04:10:17;6.70;99.90
19496;DHT22;9888;48.606;9.630;2022-12-29T04:12:44;6.70;99.90
19496;DHT22;9888;48.606;9.630;2022-12-29T04:15:13;6.80;99.90
19496;DHT22;9888;48.606;9.630;2022-12-29T04:17:40;6.80;99.90
19496;DHT22;9888;48.606;9.630;2022-12-29T04:20:09;6.70;99.90
19496;DHT22;9888;48.606;9.630;2022-12-29T04:22:59;6.70;99.90
19496;DHT22;9888;48.606;9.630;2022-12-29T04:25:27;6.60;99.90
19496;DHT22;9888;48.606;9.630;2022-12-29T04:27:54;6.70;99.90
19496;DHT22;9888;48.606;9.630;2022-12-29T04:30:21;6.70;99.90
19496;DHT22;9888;48.606;9.630;2022-12-29T04:32:48;6.90;99.90
19496;DHT22;9888;48.606;9.630;2022-12-29T04:35:15;6.80;99.90
19496;DHT22;9888;48.606;9.630;2022-12-29T04:37:42;6.60;99.90
19496;DHT22;9888;48.606;9.630;2022-12-29T04:40:11;6.50;99.90
19496;DHT22;9888;48.606;9.630;2022-12-29T04:42:38;6.60;99.90
19496;DHT22;9888;48.606;9.630;2022-12-29T04:45:06;6.80;99.90
19496;DHT22;9888;48.606;9.630;2022-12-29T04:47:33;6.70;99.90
19496;DHT22;9888;48.606;9.630;2022-12-29T04:50:00;6.50;99.90
19496;DHT22;9888;48.606;9.630;2022-12-29T04:52:28;6.30;99.90
19496;DHT22;9888;48.606;9.630;2022-12-29T04:54:56;6.30;99.90
19496;DHT22;9888;48.606;9.630;2022-12-29T04:57:27;6.30;99.90
19496;DHT22;9888;48.606;9.630;2022-12-29T04:59:54;6.50;99.90
19496;DHT22;9888;48.606;9.630;2022-12-29T05:02:21;6.60;99.90
19496;DHT22;9888;48.606;9.630;2022-12-29T05:04:48;6.70;99.90
19496;DHT22;9888;48.606;9.630;2022-12-29T05:07:15;6.70;99.90
19496;DHT22;9888;48.606;9.630;2022-12-29T05:09:42;6.70;99.90
19496;DHT22;9888;48.606;9.630;2022-12-29T05:12:09;6.60;99.90
19496;DHT22;9888;48.606;9.630;2022-12-29T05:14:36;6.50;99.90
19496;DHT22;9888;48.606;9.630;2022-12-29T05:17:03;6.40;99.90
19496;DHT22;9888;48.606;9.630;2022-12-29T05:19:30;6.20;99.90
19496;DHT22;9888;48.606;9.630;2022-12-29T05:21:57;6.10;99.90
19496;DHT22;9888;48.606;9.630;2022-12-29T05:24:24;6.00;99.90
19496;DHT22;9888;48.606;9.630;2022-12-29T05:26:51;5.80;99.90
19496;DHT22;9888;48.606;9.630;2022-12-29T05:29:18;5.70;99.90
19496;DHT22;9888;48.606;9.630;2022-12-29T05:31:45;5.50;99.90
19496;DHT22;9888;48.606;9.630;2022-12-29T05:34:12;5.70;99.90
19496;DHT22;9888;48.606;9.630;2022-12-29T05:36:40;5.60;99.90
19496;DHT22;9888;48.606;9.630;2022-12-29T05:39:07;5.50;99.90
19496;DHT22;9888;48.606;9.630;2022-12-29T05:41:34;5.50;99.90
19496;DHT22;9888;48.606;9.630;2022-12-29T05:44:01;5.50;99.90
19496;DHT22;9888;48.606;9.630;2022-12-29T05:46:29;5.40;99.90
19496;DHT22;9888;48.606;9.630;2022-12-29T05:48:55;5.40;99.90
19496;DHT22;9888;48.606;9.630;2022-12-29T05:51:23;5.40;99.90
19496;DHT22;9888;48.606;9.630;2022-12-29T05:53:50;5.30;99.90
19496;DHT22;9888;48.606;9.630;2022-12-29T05:56:17;5.20;99.90
19496;DHT22;9888;48.606;9.630;2022-12-29T05:58:44;5.10;99.90
19496;DHT22;9888;48.606;9.630;2022-12-29T06:01:11;4.90;99.90
19496;DHT22;9888;48.606;9.630;2022-12-29T06:03:38;4.80;99.90
19496;DHT22;9888;48.606;9.630;2022-12-29T06:06:05;4.60;99.90
19496;DHT22;9888;48.606;9.630;2022-12-29T06:08:33;4.60;99.90
19496;DHT22;9888;48.606;9.630;2022-12-29T06:11:00;4.70;99.90
19496;DHT22;9888;48.606;9.630;2022-12-29T06:13:26;4.70;99.90
19496;DHT22;9888;48.606;9.630;2022-12-29T06:15:54;4.80;99.90
19496;DHT22;9888;48.606;9.630;2022-12-29T06:18:21;4.90;99.90
19496;DHT22;9888;48.606;9.630;2022-12-29T06:20:48;4.90;99.90
19496;DHT22;9888;48.606;9.630;2022-12-29T06:23:15;4.80;99.90
19496;DHT22;9888;48.606;9.630;2022-12-29T06:25:42;4.70;99.90
19496;DHT22;9888;48.606;9.630;2022-12-29T06:28:10;4.60;99.90
19496;DHT22;9888;48.606;9.630;2022-12-29T06:30:38;4.60;99.90
19496;DHT22;9888;48.606;9.630;2022-12-29T06:33:05;4.50;99.90
19496;DHT22;9888;48.606;9.630;2022-12-29T06:35:34;4.50;99.90
19496;DHT22;9888;48.606;9.630;2022-12-29T06:38:01;4.50;99.90
19496;DHT22;9888;48.606;9.630;2022-12-29T06:40:29;4.50;99.90
19496;DHT22;9888;48.606;9.630;2022-12-29T06:42:57;4.60;99.90
19496;DHT22;9888;48.606;9.630;2022-12-29T06:45:24;4.60;99.90
19496;DHT22;9888;48.606;9.630;2022-12-29T06:47:52;4.60;99.90
19496;DHT22;9888;48.606;9.630;2022-12-29T06:50:19;4.70;99.90
19496;DHT22;9888;48.606;9.630;2022-12-29T06:52:46;4.80;99.90
19496;DHT22;9888;48.606;9.630;2022-12-29T06:55:13;4.90;99.90
19496;DHT22;9888;48.606;9.630;2022-12-29T06:57:46;4.90;99.90
19496;DHT22;9888;48.606;9.630;2022-12-29T07:00:15;4.90;99.90
19496;DHT22;9888;48.606;9.630;2022-12-29T07:02:43;4.90;99.90
19496;DHT22;9888;48.606;9.630;2022-12-29T07:05:10;4.80;99.90
19496;DHT22;9888;48.606;9.630;2022-12-29T07:07:37;4.80;99.90
19496;DHT22;9888;48.606;9.630;2022-12-29T07:10:04;4.80;99.90
19496;DHT22;9888;48.606;9.630;2022-12-29T07:12:31;4.80;99.90
19496;DHT22;9888;48.606;9.630;2022-12-29T07:14:57;4.80;99.90
19496;DHT22;9888;48.606;9.630;2022-12-29T07:17:24;4.70;99.90
19496;DHT22;9888;48.606;9.630;2022-12-29T07:19:51;4.70;99.90
19496;DHT22;9888;48.606;9.630;2022-12-29T07:22:18;4.70;99.90
19496;DHT22;9888;48.606;9.630;2022-12-29T07:24:45;4.80;99.90
19496;DHT22;9888;48.606;9.630;2022-12-29T07:27:14;4.70;99.90
19496;DHT22;9888;48.606;9.630;2022-12-29T07:29:41;4.60;99.90
19496;DHT22;9888;48.606;9.630;2022-12-29T07:32:08;4.50;99.90
19496;DHT22;9888;48.606;9.630;2022-12-29T07:34:35;4.50;99.90
19496;DHT22;9888;48.606;9.630;2022-12-29T07:37:02;4.50;99.90
19496;DHT22;9888;48.606;9.630;2022-12-29T07:39:29;4.60;99.90
19496;DHT22;9888;48.606;9.630;2022-12-29T07:41:56;4.60;99.90
19496;DHT22;9888;48.606;9.630;2022-12-29T07:44:25;4.60;99.90
19496;DHT22;9888;48.606;9.630;2022-12-29T07:46:53;4.60;99.90
19496;DHT22;9888;48.606;9.630;2022-12-29T07:49:20;4.70;99.90
19496;DHT22;9888;48.606;9.630;2022-12-29T07:51:47;4.80;99.90
19496;DHT22;9888;48.606;9.630;2022-12-29T07:54:15;5.00;99.90
19496;DHT22;9888;48.606;9.630;2022-12-29T07:56:44;5.20;99.90
19496;DHT22;9888;48.606;9.630;2022-12-29T07:59:16;5.40;99.90
19496;DHT22;9888;48.606;9.630;2022-12-29T08:01:42;5.50;99.90
19496;DHT22;9888;48.606;9.630;2022-12-29T08:04:09;5.60;99.90
19496;DHT22;9888;48.606;9.630;2022-12-29T08:06:37;5.70;99.90
19496;DHT22;9888;48.606;9.630;2022-12-29T08:09:39;5.80;99.90
19496;DHT22;9888;48.606;9.630;2022-12-29T08:12:07;6.00;99.90
19496;DHT22;9888;48.606;9.630;2022-12-29T08:14:35;6.10;99.90
19496;DHT22;9888;48.606;9.630;2022-12-29T08:17:03;6.20;99.90
19496;DHT22;9888;48.606;9.630;2022-12-29T08:19:30;6.30;99.90
19496;DHT22;9888;48.606;9.630;2022-12-29T08:21:57;6.50;99.90
19496;DHT22;9888;48.606;9.630;2022-12-29T08:24:24;6.70;99.90
19496;DHT22;9888;48.606;9.630;2022-12-29T08:26:53;6.90;99.90
19496;DHT22;9888;48.606;9.630;2022-12-29T08:29:20;7.00;99.90
19496;DHT22;9888;48.606;9.630;2022-12-29T08:31:47;7.30;99.90
19496;DHT22;9888;48.606;9.630;2022-12-29T08:34:16;7.50;99.90
19496;DHT22;9888;48.606;9.630;2022-12-29T08:36:43;7.60;99.90
19496;DHT22;9888;48.606;9.630;2022-12-29T08:39:10;7.70;99.90
19496;DHT22;9888;48.606;9.630;2022-12-29T08:41:39;7.90;99.90
19496;DHT22;9888;48.606;9.630;2022-12-29T08:44:06;8.10;99.90
19496;DHT22;9888;48.606;9.630;2022-12-29T08:46:35;8.30;99.90
19496;DHT22;9888;48.606;9.630;2022-12-29T08:49:01;8.60;99.90
19496;DHT22;9888;48.606;9.630;2022-12-29T08:51:28;8.80;99.90
19496;DHT22;9888;48.606;9.630;2022-12-29T08:53:57;8.70;99.90
19496;DHT22;9888;48.606;9.630;2022-12-29T08:56:26;8.70;99.90
19496;DHT22;9888;48.606;9.630;2022-12-29T08:58:54;8.90;99.90
19496;DHT22;9888;48.606;9.630;2022-12-29T09:01:22;9.10;99.90
19496;DHT22;9888;48.606;9.630;2022-12-29T09:03:49;9.30;99.90
19496;DHT22;9888;48.606;9.630;2022-12-29T09:06:18;9.40;99.90
19496;DHT22;9888;48.606;9.630;2022-12-29T09:09:08;9.60;99.90
19496;DHT22;9888;48.606;9.630;2022-12-29T09:11:36;10.00;99.90
19496;DHT22;9888;48.606;9.630;2022-12-29T09:14:04;10.20;99.90
19496;DHT22;9888;48.606;9.630;2022-12-29T09:16:31;10.10;99.90
19496;DHT22;9888;48.606;9.630;2022-12-29T09:18:59;10.00;99.90
19496;DHT22;9888;48.606;9.630;2022-12-29T09:21:28;10.00;99.90
19496;DHT22;9888;48.606;9.630;2022-12-29T09:23:56;10.00;99.90
19496;DHT22;9888;48.606;9.630;2022-12-29T09:26:24;10.30;99.90
19496;DHT22;9888;48.606;9.630;2022-12-29T09:28:51;10.20;99.90
19496;DHT22;9888;48.606;9.630;2022-12-29T09:31:18;10.10;99.90
19496;DHT22;9888;48.606;9.630;2022-12-29T09:33:47;10.30;99.90
19496;DHT22;9888;48.606;9.630;2022-12-29T09:36:16;10.30;99.90
19496;DHT22;9888;48.606;9.630;2022-12-29T09:38:42;10.50;99.90
19496;DHT22;9888;48.606;9.630;2022-12-29T09:41:41;10.60;99.90
19496;DHT22;9888;48.606;9.630;2022-12-29T09:44:30;10.50;99.90
19496;DHT22;9888;48.606;9.630;2022-12-29T09:46:59;10.50;99.90
19496;DHT22;9888;48.606;9.630;2022-12-29T09:49:46;10.40;99.90
19496;DHT22;9888;48.606;9.630;2022-12-29T09:52:19;10.30;99.90
19496;DHT22;9888;48.606;9.630;2022-12-29T09:54:57;10.00;99.90
19496;DHT22;9888;48.606;9.630;2022-12-29T09:57:46;9.80;99.90
19496;DHT22;9888;48.606;9.630;2022-12-29T10:00:22;9.70;99.90
19496;DHT22;9888;48.606;9.630;2022-12-29T10:02:54;9.70;99.90
19496;DHT22;9888;48.606;9.630;2022-12-29T10:08:39;9.70;99.90
19496;DHT22;9888;48.606;9.630;2022-12-29T10:11:34;9.80;99.90
19496;DHT22;9888;48.606;9.630;2022-12-29T10:17:01;9.80;99.90
19496;DHT22;9888;48.606;9.630;2022-12-29T10:22:41;10.10;99.90
19496;DHT22;9888;48.606;9.630;2022-12-29T10:25:21;10.90;99.90
19496;DHT22;9888;48.606;9.630;2022-12-29T10:27:50;11.20;99.90
19496;DHT22;9888;48.606;9.630;2022-12-29T10:30:18;11.20;99.90
19496;DHT22;9888;48.606;9.630;2022-12-29T10:35:25;10.50;99.90
19496;DHT22;9888;48.606;9.630;2022-12-29T10:41:26;10.10;99.90
19496;DHT22;9888;48.606;9.630;2022-12-29T10:44:02;9.90;99.90
19496;DHT22;9888;48.606;9.630;2022-12-29T10:46:37;9.80;99.90
19496;DHT22;9888;48.606;9.630;2022-12-29T10:49:16;9.70;99.90
19496;DHT22;9888;48.606;9.630;2022-12-29T10:51:47;9.60;99.90
19496;DHT22;9888;48.606;9.630;2022-12-29T10:54:56;9.60;99.90
19496;DHT22;9888;48.606;9.630;2022-12-29T10:57:44;9.50;99.90
19496;DHT22;9888;48.606;9.630;2022-12-29T11:00:25;9.40;99.90
19496;DHT22;9888;48.606;9.630;2022-12-29T11:03:30;9.40;99.90
19496;DHT22;9888;48.606;9.630;2022-12-29T11:08:41;9.60;99.90
19496;DHT22;9888;48.606;9.630;2022-12-29T11:11:12;9.50;99.90
19496;DHT22;9888;48.606;9.630;2022-12-29T11:17:04;9.50;99.90
19496;DHT22;9888;48.606;9.630;2022-12-29T11:19:36;9.50;99.90
19496;DHT22;9888;48.606;9.630;2022-12-29T11:22:40;9.60;99.90
19496;DHT22;9888;48.606;9.630;2022-12-29T11:25:20;9.50;99.90
19496;DHT22;9888;48.606;9.630;2022-12-29T11:28:03;9.60;99.90
19496;DHT22;9888;48.606;9.630;2022-12-29T11:30:41;9.70;99.90
19496;DHT22;9888;48.606;9.630;2022-12-29T11:33:10;9.80;99.90
19496;DHT22;9888;48.606;9.630;2022-12-29T11:35:45;10.00;99.90
19496;DHT22;9888;48.606;9.630;2022-12-29T11:38:25;10.20;99.90
19496;DHT22;9888;48.606;9.630;2022-12-29T11:40:56;10.40;99.90
19496;DHT22;9888;48.606;9.630;2022-12-29T11:43:33;10.50;99.90
19496;DHT22;9888;48.606;9.630;2022-12-29T11:46:06;10.50;99.90
19496;DHT22;9888;48.606;9.630;2022-12-29T11:48:40;10.50;99.90
19496;DHT22;9888;48.606;9.630;2022-12-29T11:51:26;10.40;99.90
19496;DHT22;9888;48.606;9.630;2022-12-29T11:54:00;10.50;99.90
19496;DHT22;9888;48.606;9.630;2022-12-29T11:56:40;10.40;99.90
19496;DHT22;9888;48.606;9.630;2022-12-29T12:02:11;10.40;99.90
19496;DHT22;9888;48.606;9.630;2022-12-29T12:04:46;10.40;99.90
19496;DHT22;9888;48.606;9.630;2022-12-29T12:07:36;10.40;99.90
19496;DHT22;9888;48.606;9.630;2022-12-29T12:10:11;10.40;99.90
19496;DHT22;9888;48.606;9.630;2022-12-29T12:16:12;10.70;99.90
19496;DHT22;9888;48.606;9.630;2022-12-29T12:21:23;10.70;99.90
19496;DHT22;9888;48.606;9.630;2022-12-29T12:24:15;10.60;99.90
19496;DHT22;9888;48.606;9.630;2022-12-29T12:26:58;10.60;99.90
19496;DHT22;9888;48.606;9.630;2022-12-29T12:30:19;10.60;99.90
19496;DHT22;9888;48.606;9.630;2022-12-29T12:32:55;10.60;99.90
19496;DHT22;9888;48.606;9.630;2022-12-29T12:38:22;10.40;99.90
19496;DHT22;9888;48.606;9.630;2022-12-29T12:41:00;10.30;99.90
19496;DHT22;9888;48.606;9.630;2022-12-29T12:46:39;9.80;99.90
19496;DHT22;9888;48.606;9.630;2022-12-29T12:57:35;9.60;99.90
19496;DHT22;9888;48.606;9.630;2022-12-29T13:00:19;9.50;99.90
19496;DHT22;9888;48.606;9.630;2022-12-29T13:03:17;9.40;99.90
19496;DHT22;9888;48.606;9.630;2022-12-29T13:11:54;9.50;99.90
19496;DHT22;9888;48.606;9.630;2022-12-29T13:14:57;9.60;99.90
19496;DHT22;9888;48.606;9.630;2022-12-29T13:17:52;9.60;99.90
19496;DHT22;9888;48.606;9.630;2022-12-29T13:25:56;9.90;99.90
19496;DHT22;9888;48.606;9.630;2022-12-29T13:28:52;10.00;99.90
19496;DHT22;9888;48.606;9.630;2022-12-29T13:37:20;10.00;99.90
19496;DHT22;9888;48.606;9.630;2022-12-29T13:40:02;10.00;99.90
19496;DHT22;9888;48.606;9.630;2022-12-29T22:12:32;5.40;99.90
19496;DHT22;9888;48.606;9.630;2022-12-29T22:15:18;5.40;99.90
19496;DHT22;9888;48.606;9.630;2022-12-29T22:17:51;5.30;99.90
19496;DHT22;9888;48.606;9.630;2022-12-29T22:20:22;5.30;99.90
19496;DHT22;9888;48.606;9.630;2022-12-29T22:23:04;5.20;99.90
19496;DHT22;9888;48.606;9.630;2022-12-29T22:25:31;5.20;99.90
19496;DHT22;9888;48.606;9.630;2022-12-29T22:27:59;5.20;99.90
19496;DHT22;9888;48.606;9.630;2022-12-29T22:30:30;5.20;99.90
19496;DHT22;9888;48.606;9.630;2022-12-29T22:32:59;5.20;99.90
19496;DHT22;9888;48.606;9.630;2022-12-29T22:35:27;5.20;99.90
19496;DHT22;9888;48.606;9.630;2022-12-29T22:37:54;5.10;99.90
19496;DHT22;9888;48.606;9.630;2022-12-29T22:40:21;5.10;99.90
19496;DHT22;9888;48.606;9.630;2022-12-29T22:42:50;5.10;99.90
19496;DHT22;9888;48.606;9.630;2022-12-29T22:45:16;5.10;99.90
19496;DHT22;9888;48.606;9.630;2022-12-29T22:47:44;5.10;99.90
19496;DHT22;9888;48.606;9.630;2022-12-29T22:50:17;5.00;99.90
19496;DHT22;9888;48.606;9.630;2022-12-29T22:52:44;5.00;99.90
19496;DHT22;9888;48.606;9.630;2022-12-29T22:55:11;5.00;99.90
19496;DHT22;9888;48.606;9.630;2022-12-29T22:57:38;5.00;99.90
19496;DHT22;9888;48.606;9.630;2022-12-29T23:00:06;5.00;99.90
19496;DHT22;9888;48.606;9.630;2022-12-29T23:02:34;4.90;99.90
19496;DHT22;9888;48.606;9.630;2022-12-29T23:05:01;4.90;99.90
19496;DHT22;9888;48.606;9.630;2022-12-29T23:07:28;5.00;99.90
19496;DHT22;9888;48.606;9.630;2022-12-29T23:09:55;5.00;99.90
19496;DHT22;9888;48.606;9.630;2022-12-29T23:12:23;4.90;99.90
19496;DHT22;9888;48.606;9.630;2022-12-29T23:14:50;5.00;99.90
19496;DHT22;9888;48.606;9.630;2022-12-29T23:17:17;5.00;99.90
19496;DHT22;9888;48.606;9.630;2022-12-29T23:19:44;4.90;99.90
19496;DHT22;9888;48.606;9.630;2022-12-29T23:22:11;4.90;99.90
19496;DHT22;9888;48.606;9.630;2022-12-29T23:24:38;5.00;99.90
19496;DHT22;9888;48.606;9.630;2022-12-29T23:27:05;4.90;99.90
19496;DHT22;9888;48.606;9.630;2022-12-29T23:29:33;4.90;99.90
19496;DHT22;9888;48.606;9.630;2022-12-29T23:32:00;4.90;99.90
19496;DHT22;9888;48.606;9.630;2022-12-29T23:34:27;4.90;99.90
19496;DHT22;9888;48.606;9.630;2022-12-29T23:36:54;4.90;99.90
19496;DHT22;9888;48.606;9.630;2022-12-29T23:39:22;4.90;99.90
19496;DHT22;9888;48.606;9.630;2022-12-29T23:41:50;4.90;99.90
19496;DHT22;9888;48.606;9.630;2022-12-29T23:44:20;4.90;99.90
19496;DHT22;9888;48.606;9.630;2022-12-29T23:46:50;4.90;99.90
19496;DHT22;9888;48.606;9.630;2022-12-29T23:49:18;5.00;99.90
19496;DHT22;9888;48.606;9.630;2022-12-29T23:51:45;5.00;99.90
19496;DHT22;9888;48.606;9.630;2022-12-29T23:54:12;5.10;99.90
19496;DHT22;9888;48.606;9.630;2022-12-29T23:56:40;5.10;99.90
19496;DHT22;9888;48.606;9.630;2022-12-29T23:59:07;5.20;99.90
